Terminal Aerodrome Forecast
Issued by NWS

Home | Current Version | Previous Version | Graphics & Text | Print | Product List | Glossary On
Versions: 1 2 3 4 5 6 7 8 9 10 11 12 13 14 15
000
FTUS43 KGRB 101700
TAFATW
TAF
KATW 101735Z 1018/1118 16008KT P6SM SCT045
     FM110600 18005KT P6SM SCT050 BKN250
     FM111600 19010G18KT P6SM SCT040 BKN150=

USA.gov is the U.S. government's official web portal to all federal, state and local government web resources and services.